sensor_id;sensor_type;location;lat;lon;timestamp;P1;durP1;ratioP1;P2;durP2;ratioP2
3997;SDS011;61314;53.444;9.902;2023-07-29T00:00:43;5.97;;;5.57;;
3997;SDS011;61314;53.444;9.902;2023-07-29T00:03:10;5.60;;;4.63;;
3997;SDS011;61314;53.444;9.902;2023-07-29T00:05:38;5.57;;;5.17;;
3997;SDS011;61314;53.444;9.902;2023-07-29T00:08:05;5.53;;;5.17;;
3997;SDS011;61314;53.444;9.902;2023-07-29T00:10:34;6.33;;;5.73;;
3997;SDS011;61314;53.444;9.902;2023-07-29T00:13:02;6.57;;;6.00;;
3997;SDS011;61314;53.444;9.902;2023-07-29T00:15:30;5.20;;;4.80;;
3997;SDS011;61314;53.444;9.902;2023-07-29T00:17:57;5.30;;;5.00;;
3997;SDS011;61314;53.444;9.902;2023-07-29T00:20:24;6.70;;;6.20;;
3997;SDS011;61314;53.444;9.902;2023-07-29T00:22:51;6.53;;;6.03;;
3997;SDS011;61314;53.444;9.902;2023-07-29T00:25:21;6.20;;;5.70;;
3997;SDS011;61314;53.444;9.902;2023-07-29T00:27:48;6.80;;;6.10;;
3997;SDS011;61314;53.444;9.902;2023-07-29T00:30:16;6.23;;;5.83;;
3997;SDS011;61314;53.444;9.902;2023-07-29T00:32:43;7.97;;;5.67;;
3997;SDS011;61314;53.444;9.902;2023-07-29T00:35:10;6.27;;;5.77;;
3997;SDS011;61314;53.444;9.902;2023-07-29T00:37:37;7.17;;;6.47;;
3997;SDS011;61314;53.444;9.902;2023-07-29T00:40:07;6.13;;;5.63;;
3997;SDS011;61314;53.444;9.902;2023-07-29T00:42:36;7.70;;;7.00;;
3997;SDS011;61314;53.444;9.902;2023-07-29T00:45:03;7.43;;;6.03;;
3997;SDS011;61314;53.444;9.902;2023-07-29T00:47:32;7.83;;;6.17;;
3997;SDS011;61314;53.444;9.902;2023-07-29T00:49:59;10.17;;;6.37;;
3997;SDS011;61314;53.444;9.902;2023-07-29T00:52:26;6.83;;;6.23;;
3997;SDS011;61314;53.444;9.902;2023-07-29T00:54:53;6.90;;;6.30;;
3997;SDS011;61314;53.444;9.902;2023-07-29T00:57:20;7.27;;;6.37;;
3997;SDS011;61314;53.444;9.902;2023-07-29T00:59:48;8.90;;;6.67;;
3997;SDS011;61314;53.444;9.902;2023-07-29T01:02:16;7.57;;;6.87;;
3997;SDS011;61314;53.444;9.902;2023-07-29T01:04:43;7.03;;;6.33;;
3997;SDS011;61314;53.444;9.902;2023-07-29T01:07:19;7.23;;;6.73;;
3997;SDS011;61314;53.444;9.902;2023-07-29T01:09:51;6.73;;;6.13;;
3997;SDS011;61314;53.444;9.902;2023-07-29T01:12:27;7.50;;;6.80;;
3997;SDS011;61314;53.444;9.902;2023-07-29T01:14:58;6.80;;;6.30;;
3997;SDS011;61314;53.444;9.902;2023-07-29T01:17:30;8.00;;;7.40;;
3997;SDS011;61314;53.444;9.902;2023-07-29T01:20:09;8.50;;;6.37;;
3997;SDS011;61314;53.444;9.902;2023-07-29T01:22:36;7.43;;;6.73;;
3997;SDS011;61314;53.444;9.902;2023-07-29T01:25:05;9.73;;;6.67;;
3997;SDS011;61314;53.444;9.902;2023-07-29T01:27:32;10.30;;;7.00;;
3997;SDS011;61314;53.444;9.902;2023-07-29T01:29:59;7.40;;;6.80;;
3997;SDS011;61314;53.444;9.902;2023-07-29T01:35:21;11.07;;;9.00;;
3997;SDS011;61314;53.444;9.902;2023-07-29T01:37:51;9.70;;;8.63;;
3997;SDS011;61314;53.444;9.902;2023-07-29T01:40:19;10.53;;;8.30;;
3997;SDS011;61314;53.444;9.902;2023-07-29T01:42:47;11.17;;;8.97;;
3997;SDS011;61314;53.444;9.902;2023-07-29T01:45:14;9.83;;;8.93;;
3997;SDS011;61314;53.444;9.902;2023-07-29T01:47:41;9.90;;;8.93;;
3997;SDS011;61314;53.444;9.902;2023-07-29T01:50:08;10.30;;;8.03;;
3997;SDS011;61314;53.444;9.902;2023-07-29T01:52:36;8.53;;;7.70;;
3997;SDS011;61314;53.444;9.902;2023-07-29T01:55:03;8.07;;;7.30;;
3997;SDS011;61314;53.444;9.902;2023-07-29T01:57:30;8.67;;;7.87;;
3997;SDS011;61314;53.444;9.902;2023-07-29T01:59:57;8.10;;;7.23;;
3997;SDS011;61314;53.444;9.902;2023-07-29T02:02:24;9.03;;;8.23;;
3997;SDS011;61314;53.444;9.902;2023-07-29T02:04:51;7.70;;;7.10;;
3997;SDS011;61314;53.444;9.902;2023-07-29T02:07:18;7.03;;;6.43;;
3997;SDS011;61314;53.444;9.902;2023-07-29T02:09:45;7.63;;;6.87;;
3997;SDS011;61314;53.444;9.902;2023-07-29T02:12:12;9.30;;;8.50;;
3997;SDS011;61314;53.444;9.902;2023-07-29T02:14:40;8.53;;;7.80;;
3997;SDS011;61314;53.444;9.902;2023-07-29T02:17:07;8.27;;;7.50;;
3997;SDS011;61314;53.444;9.902;2023-07-29T02:19:34;8.47;;;7.77;;
3997;SDS011;61314;53.444;9.902;2023-07-29T02:22:02;9.07;;;8.27;;
3997;SDS011;61314;53.444;9.902;2023-07-29T02:24:29;9.10;;;8.30;;
3997;SDS011;61314;53.444;9.902;2023-07-29T02:26:56;11.30;;;8.17;;
3997;SDS011;61314;53.444;9.902;2023-07-29T02:29:23;9.10;;;8.30;;
3997;SDS011;61314;53.444;9.902;2023-07-29T02:31:51;9.80;;;8.87;;
3997;SDS011;61314;53.444;9.902;2023-07-29T02:34:18;8.47;;;7.73;;
3997;SDS011;61314;53.444;9.902;2023-07-29T02:36:45;9.97;;;9.10;;
3997;SDS011;61314;53.444;9.902;2023-07-29T02:39:12;11.20;;;8.50;;
3997;SDS011;61314;53.444;9.902;2023-07-29T02:41:40;9.93;;;9.03;;
3997;SDS011;61314;53.444;9.902;2023-07-29T02:44:07;13.30;;;9.07;;
3997;SDS011;61314;53.444;9.902;2023-07-29T02:46:34;10.00;;;9.10;;
3997;SDS011;61314;53.444;9.902;2023-07-29T02:49:02;10.40;;;9.30;;
3997;SDS011;61314;53.444;9.902;2023-07-29T02:51:30;8.97;;;8.07;;
3997;SDS011;61314;53.444;9.902;2023-07-29T02:53:57;10.20;;;9.17;;
3997;SDS011;61314;53.444;9.902;2023-07-29T02:56:24;8.33;;;7.70;;
3997;SDS011;61314;53.444;9.902;2023-07-29T02:58:51;9.50;;;8.50;;
3997;SDS011;61314;53.444;9.902;2023-07-29T03:01:18;9.10;;;8.30;;
3997;SDS011;61314;53.444;9.902;2023-07-29T03:03:46;8.40;;;7.67;;
3997;SDS011;61314;53.444;9.902;2023-07-29T03:06:13;10.03;;;9.13;;
3997;SDS011;61314;53.444;9.902;2023-07-29T03:08:41;9.70;;;8.77;;
3997;SDS011;61314;53.444;9.902;2023-07-29T03:11:09;11.20;;;7.93;;
3997;SDS011;61314;53.444;9.902;2023-07-29T03:13:36;11.07;;;8.93;;
3997;SDS011;61314;53.444;9.902;2023-07-29T03:16:04;17.60;;;9.80;;
3997;SDS011;61314;53.444;9.902;2023-07-29T03:18:31;10.63;;;9.73;;
3997;SDS011;61314;53.444;9.902;2023-07-29T03:20:59;12.67;;;11.47;;
3997;SDS011;61314;53.444;9.902;2023-07-29T03:23:27;44.10;;;14.93;;
3997;SDS011;61314;53.444;9.902;2023-07-29T03:25:55;14.67;;;13.07;;
3997;SDS011;61314;53.444;9.902;2023-07-29T03:28:26;17.40;;;15.50;;
3997;SDS011;61314;53.444;9.902;2023-07-29T03:30:54;19.43;;;17.53;;
3997;SDS011;61314;53.444;9.902;2023-07-29T03:33:21;23.00;;;17.90;;
3997;SDS011;61314;53.444;9.902;2023-07-29T03:35:48;26.07;;;19.43;;
3997;SDS011;61314;53.444;9.902;2023-07-29T03:38:16;23.13;;;20.07;;
3997;SDS011;61314;53.444;9.902;2023-07-29T03:40:43;26.77;;;23.00;;
3997;SDS011;61314;53.444;9.902;2023-07-29T03:43:10;22.83;;;20.00;;
3997;SDS011;61314;53.444;9.902;2023-07-29T03:45:37;23.80;;;21.03;;
3997;SDS011;61314;53.444;9.902;2023-07-29T03:48:04;21.50;;;19.20;;
3997;SDS011;61314;53.444;9.902;2023-07-29T03:50:33;24.70;;;21.77;;
3997;SDS011;61314;53.444;9.902;2023-07-29T03:53:01;24.33;;;19.90;;
3997;SDS011;61314;53.444;9.902;2023-07-29T03:55:28;20.83;;;18.63;;
3997;SDS011;61314;53.444;9.902;2023-07-29T03:57:56;21.73;;;19.20;;
3997;SDS011;61314;53.444;9.902;2023-07-29T04:00:23;22.90;;;19.57;;
3997;SDS011;61314;53.444;9.902;2023-07-29T04:02:50;23.10;;;19.87;;
3997;SDS011;61314;53.444;9.902;2023-07-29T04:05:18;24.80;;;22.33;;
3997;SDS011;61314;53.444;9.902;2023-07-29T04:07:45;22.03;;;17.63;;
3997;SDS011;61314;53.444;9.902;2023-07-29T04:10:13;24.67;;;20.83;;
3997;SDS011;61314;53.444;9.902;2023-07-29T04:12:40;30.53;;;18.27;;
3997;SDS011;61314;53.444;9.902;2023-07-29T04:15:07;22.37;;;19.53;;
3997;SDS011;61314;53.444;9.902;2023-07-29T04:17:34;22.27;;;19.33;;
3997;SDS011;61314;53.444;9.902;2023-07-29T04:20:02;24.23;;;21.73;;
3997;SDS011;61314;53.444;9.902;2023-07-29T04:22:29;24.10;;;21.40;;
3997;SDS011;61314;53.444;9.902;2023-07-29T04:24:56;27.77;;;22.33;;
3997;SDS011;61314;53.444;9.902;2023-07-29T04:27:23;72.20;;;25.93;;
3997;SDS011;61314;53.444;9.902;2023-07-29T04:29:50;28.23;;;24.47;;
3997;SDS011;61314;53.444;9.902;2023-07-29T04:32:17;29.87;;;24.60;;
3997;SDS011;61314;53.444;9.902;2023-07-29T04:34:44;31.40;;;26.47;;
3997;SDS011;61314;53.444;9.902;2023-07-29T04:37:11;30.17;;;25.37;;
3997;SDS011;61314;53.444;9.902;2023-07-29T04:39:38;34.10;;;27.63;;
3997;SDS011;61314;53.444;9.902;2023-07-29T04:42:05;34.27;;;27.07;;
3997;SDS011;61314;53.444;9.902;2023-07-29T04:44:33;36.17;;;29.57;;
3997;SDS011;61314;53.444;9.902;2023-07-29T04:47:00;33.07;;;27.40;;
3997;SDS011;61314;53.444;9.902;2023-07-29T04:49:27;33.50;;;28.23;;
3997;SDS011;61314;53.444;9.902;2023-07-29T04:51:54;35.23;;;25.97;;
3997;SDS011;61314;53.444;9.902;2023-07-29T04:54:21;31.43;;;25.40;;
3997;SDS011;61314;53.444;9.902;2023-07-29T04:56:48;33.40;;;26.63;;
3997;SDS011;61314;53.444;9.902;2023-07-29T04:59:15;32.53;;;25.10;;
3997;SDS011;61314;53.444;9.902;2023-07-29T05:01:43;29.13;;;24.60;;
3997;SDS011;61314;53.444;9.902;2023-07-29T05:04:10;33.27;;;24.60;;
3997;SDS011;61314;53.444;9.902;2023-07-29T05:06:37;33.50;;;27.03;;
3997;SDS011;61314;53.444;9.902;2023-07-29T05:09:14;28.50;;;23.80;;
3997;SDS011;61314;53.444;9.902;2023-07-29T05:11:42;29.00;;;24.60;;
3997;SDS011;61314;53.444;9.902;2023-07-29T05:14:13;30.23;;;24.53;;
3997;SDS011;61314;53.444;9.902;2023-07-29T05:16:40;31.80;;;26.20;;
3997;SDS011;61314;53.444;9.902;2023-07-29T05:19:07;33.63;;;26.50;;
3997;SDS011;61314;53.444;9.902;2023-07-29T05:21:34;28.67;;;23.57;;
3997;SDS011;61314;53.444;9.902;2023-07-29T05:24:02;39.17;;;28.80;;
3997;SDS011;61314;53.444;9.902;2023-07-29T05:26:29;31.03;;;25.77;;
3997;SDS011;61314;53.444;9.902;2023-07-29T05:28:56;35.47;;;27.03;;
3997;SDS011;61314;53.444;9.902;2023-07-29T05:31:23;37.30;;;25.67;;
3997;SDS011;61314;53.444;9.902;2023-07-29T05:33:50;37.03;;;24.93;;
3997;SDS011;61314;53.444;9.902;2023-07-29T05:36:17;35.33;;;26.57;;
3997;SDS011;61314;53.444;9.902;2023-07-29T05:38:44;34.30;;;27.33;;
3997;SDS011;61314;53.444;9.902;2023-07-29T05:41:11;37.83;;;28.20;;
3997;SDS011;61314;53.444;9.902;2023-07-29T05:43:38;34.77;;;27.17;;
3997;SDS011;61314;53.444;9.902;2023-07-29T05:46:06;34.47;;;27.00;;
3997;SDS011;61314;53.444;9.902;2023-07-29T05:48:33;35.23;;;27.07;;
3997;SDS011;61314;53.444;9.902;2023-07-29T05:51:00;36.83;;;26.10;;
3997;SDS011;61314;53.444;9.902;2023-07-29T05:53:27;36.97;;;27.67;;
3997;SDS011;61314;53.444;9.902;2023-07-29T05:55:55;32.17;;;26.40;;
3997;SDS011;61314;53.444;9.902;2023-07-29T05:58:22;37.10;;;28.03;;
3997;SDS011;61314;53.444;9.902;2023-07-29T06:00:50;41.83;;;28.40;;
3997;SDS011;61314;53.444;9.902;2023-07-29T06:03:17;35.03;;;28.17;;
3997;SDS011;61314;53.444;9.902;2023-07-29T06:05:45;42.07;;;31.70;;
3997;SDS011;61314;53.444;9.902;2023-07-29T06:08:12;39.83;;;31.10;;
3997;SDS011;61314;53.444;9.902;2023-07-29T06:10:39;43.63;;;32.53;;
3997;SDS011;61314;53.444;9.902;2023-07-29T06:13:06;41.57;;;31.47;;
3997;SDS011;61314;53.444;9.902;2023-07-29T06:15:34;43.10;;;31.93;;
3997;SDS011;61314;53.444;9.902;2023-07-29T06:18:01;42.23;;;30.73;;
3997;SDS011;61314;53.444;9.902;2023-07-29T06:20:28;42.80;;;32.20;;
3997;SDS011;61314;53.444;9.902;2023-07-29T06:22:55;49.23;;;29.90;;
3997;SDS011;61314;53.444;9.902;2023-07-29T06:25:22;40.20;;;31.63;;
3997;SDS011;61314;53.444;9.902;2023-07-29T06:27:49;31.93;;;27.03;;
3997;SDS011;61314;53.444;9.902;2023-07-29T06:30:16;40.20;;;29.90;;
3997;SDS011;61314;53.444;9.902;2023-07-29T06:32:44;39.77;;;29.40;;
3997;SDS011;61314;53.444;9.902;2023-07-29T06:35:11;29.47;;;24.73;;
3997;SDS011;61314;53.444;9.902;2023-07-29T06:37:38;29.03;;;23.90;;
3997;SDS011;61314;53.444;9.902;2023-07-29T06:40:05;26.17;;;22.03;;
3997;SDS011;61314;53.444;9.902;2023-07-29T06:42:33;25.77;;;21.50;;
3997;SDS011;61314;53.444;9.902;2023-07-29T06:45:00;30.33;;;24.07;;
3997;SDS011;61314;53.444;9.902;2023-07-29T06:47:27;25.13;;;21.93;;
3997;SDS011;61314;53.444;9.902;2023-07-29T06:49:54;22.37;;;20.03;;
3997;SDS011;61314;53.444;9.902;2023-07-29T06:52:21;27.13;;;20.60;;
3997;SDS011;61314;53.444;9.902;2023-07-29T06:54:48;29.17;;;21.83;;
3997;SDS011;61314;53.444;9.902;2023-07-29T06:57:15;22.20;;;19.13;;
3997;SDS011;61314;53.444;9.902;2023-07-29T06:59:42;30.57;;;20.30;;
3997;SDS011;61314;53.444;9.902;2023-07-29T07:02:09;25.17;;;19.40;;
3997;SDS011;61314;53.444;9.902;2023-07-29T07:04:36;20.33;;;17.50;;
3997;SDS011;61314;53.444;9.902;2023-07-29T07:07:03;22.73;;;19.60;;
3997;SDS011;61314;53.444;9.902;2023-07-29T07:09:30;26.50;;;19.20;;
3997;SDS011;61314;53.444;9.902;2023-07-29T07:11:57;19.83;;;16.30;;
3997;SDS011;61314;53.444;9.902;2023-07-29T07:14:25;18.13;;;16.13;;
3997;SDS011;61314;53.444;9.902;2023-07-29T07:16:52;23.57;;;18.17;;
3997;SDS011;61314;53.444;9.902;2023-07-29T07:19:19;19.50;;;16.83;;
3997;SDS011;61314;53.444;9.902;2023-07-29T07:21:46;23.17;;;18.30;;
3997;SDS011;61314;53.444;9.902;2023-07-29T07:24:13;22.30;;;16.67;;
3997;SDS011;61314;53.444;9.902;2023-07-29T07:26:40;18.53;;;16.50;;
3997;SDS011;61314;53.444;9.902;2023-07-29T07:29:07;22.00;;;16.67;;
3997;SDS011;61314;53.444;9.902;2023-07-29T07:31:34;20.77;;;16.83;;
3997;SDS011;61314;53.444;9.902;2023-07-29T07:34:01;17.13;;;14.87;;
3997;SDS011;61314;53.444;9.902;2023-07-29T07:36:29;20.67;;;16.17;;
3997;SDS011;61314;53.444;9.902;2023-07-29T07:38:58;19.77;;;17.57;;
3997;SDS011;61314;53.444;9.902;2023-07-29T07:41:25;17.90;;;15.93;;
3997;SDS011;61314;53.444;9.902;2023-07-29T07:43:52;17.73;;;15.77;;
3997;SDS011;61314;53.444;9.902;2023-07-29T07:46:19;24.87;;;14.97;;
3997;SDS011;61314;53.444;9.902;2023-07-29T07:48:47;16.87;;;15.07;;
3997;SDS011;61314;53.444;9.902;2023-07-29T07:51:14;17.90;;;13.67;;
3997;SDS011;61314;53.444;9.902;2023-07-29T07:53:41;16.00;;;13.77;;
3997;SDS011;61314;53.444;9.902;2023-07-29T07:56:08;16.20;;;14.63;;
3997;SDS011;61314;53.444;9.902;2023-07-29T07:58:35;16.30;;;14.70;;
3997;SDS011;61314;53.444;9.902;2023-07-29T08:01:03;16.27;;;14.63;;
3997;SDS011;61314;53.444;9.902;2023-07-29T08:03:30;16.63;;;14.93;;
3997;SDS011;61314;53.444;9.902;2023-07-29T08:05:58;16.57;;;14.87;;
3997;SDS011;61314;53.444;9.902;2023-07-29T08:08:26;20.10;;;14.47;;
3997;SDS011;61314;53.444;9.902;2023-07-29T08:10:53;17.20;;;13.77;;
3997;SDS011;61314;53.444;9.902;2023-07-29T08:13:21;16.07;;;14.37;;
3997;SDS011;61314;53.444;9.902;2023-07-29T08:15:48;19.10;;;15.20;;
3997;SDS011;61314;53.444;9.902;2023-07-29T08:18:16;16.57;;;14.87;;
3997;SDS011;61314;53.444;9.902;2023-07-29T08:23:20;18.97;;;16.23;;
3997;SDS011;61314;53.444;9.902;2023-07-29T08:25:51;17.00;;;15.20;;
3997;SDS011;61314;53.444;9.902;2023-07-29T08:28:19;18.50;;;16.80;;
3997;SDS011;61314;53.444;9.902;2023-07-29T08:30:47;17.57;;;15.77;;
3997;SDS011;61314;53.444;9.902;2023-07-29T08:33:14;19.77;;;16.13;;
3997;SDS011;61314;53.444;9.902;2023-07-29T08:35:42;16.90;;;15.20;;
3997;SDS011;61314;53.444;9.902;2023-07-29T08:38:09;18.20;;;16.37;;
3997;SDS011;61314;53.444;9.902;2023-07-29T08:40:37;15.80;;;14.30;;
3997;SDS011;61314;53.444;9.902;2023-07-29T08:43:04;16.70;;;15.13;;
3997;SDS011;61314;53.444;9.902;2023-07-29T08:45:33;16.33;;;14.73;;
3997;SDS011;61314;53.444;9.902;2023-07-29T08:48:02;16.77;;;15.03;;
3997;SDS011;61314;53.444;9.902;2023-07-29T08:50:29;16.37;;;14.87;;
3997;SDS011;61314;53.444;9.902;2023-07-29T08:52:59;17.50;;;15.90;;
3997;SDS011;61314;53.444;9.902;2023-07-29T08:55:28;16.30;;;14.80;;
3997;SDS011;61314;53.444;9.902;2023-07-29T08:57:56;15.87;;;14.07;;
3997;SDS011;61314;53.444;9.902;2023-07-29T09:00:25;17.57;;;15.77;;
3997;SDS011;61314;53.444;9.902;2023-07-29T09:02:52;16.10;;;14.63;;
3997;SDS011;61314;53.444;9.902;2023-07-29T09:05:20;18.10;;;16.30;;
3997;SDS011;61314;53.444;9.902;2023-07-29T09:07:47;16.93;;;15.23;;
3997;SDS011;61314;53.444;9.902;2023-07-29T09:10:15;17.60;;;15.90;;
3997;SDS011;61314;53.444;9.902;2023-07-29T09:12:42;15.60;;;14.10;;
3997;SDS011;61314;53.444;9.902;2023-07-29T09:15:09;17.90;;;16.23;;
3997;SDS011;61314;53.444;9.902;2023-07-29T09:17:36;17.37;;;15.57;;
3997;SDS011;61314;53.444;9.902;2023-07-29T09:20:03;18.40;;;16.50;;
3997;SDS011;61314;53.444;9.902;2023-07-29T09:22:31;17.77;;;15.97;;
3997;SDS011;61314;53.444;9.902;2023-07-29T09:24:58;14.33;;;13.03;;
3997;SDS011;61314;53.444;9.902;2023-07-29T09:27:26;14.93;;;13.53;;
3997;SDS011;61314;53.444;9.902;2023-07-29T09:29:53;16.33;;;13.40;;
3997;SDS011;61314;53.444;9.902;2023-07-29T09:32:21;12.83;;;11.77;;
3997;SDS011;61314;53.444;9.902;2023-07-29T09:34:48;14.17;;;12.80;;
3997;SDS011;61314;53.444;9.902;2023-07-29T09:37:22;19.03;;;12.60;;
3997;SDS011;61314;53.444;9.902;2023-07-29T09:39:49;12.87;;;11.70;;
3997;SDS011;61314;53.444;9.902;2023-07-29T09:42:17;12.83;;;11.77;;
3997;SDS011;61314;53.444;9.902;2023-07-29T09:44:44;11.50;;;10.50;;
3997;SDS011;61314;53.444;9.902;2023-07-29T09:47:24;11.17;;;10.10;;
3997;SDS011;61314;53.444;9.902;2023-07-29T09:49:52;10.37;;;9.37;;
3997;SDS011;61314;53.444;9.902;2023-07-29T09:52:20;11.03;;;9.93;;
3997;SDS011;61314;53.444;9.902;2023-07-29T09:54:48;8.70;;;8.00;;
3997;SDS011;61314;53.444;9.902;2023-07-29T09:57:16;9.73;;;8.83;;
3997;SDS011;61314;53.444;9.902;2023-07-29T09:59:48;8.77;;;7.73;;
3997;SDS011;61314;53.444;9.902;2023-07-29T10:02:19;7.57;;;6.97;;
3997;SDS011;61314;53.444;9.902;2023-07-29T10:04:47;7.23;;;6.73;;
3997;SDS011;61314;53.444;9.902;2023-07-29T10:07:14;7.10;;;6.60;;
3997;SDS011;61314;53.444;9.902;2023-07-29T10:09:42;6.00;;;5.60;;
3997;SDS011;61314;53.444;9.902;2023-07-29T10:12:10;6.20;;;5.80;;
3997;SDS011;61314;53.444;9.902;2023-07-29T10:14:38;5.40;;;5.10;;
3997;SDS011;61314;53.444;9.902;2023-07-29T10:17:05;4.97;;;4.60;;
3997;SDS011;61314;53.444;9.902;2023-07-29T10:19:32;3.27;;;3.17;;
3997;SDS011;61314;53.444;9.902;2023-07-29T10:22:01;7.73;;;3.60;;
3997;SDS011;61314;53.444;9.902;2023-07-29T10:24:30;4.73;;;4.17;;
3997;SDS011;61314;53.444;9.902;2023-07-29T10:26:59;3.83;;;3.50;;
3997;SDS011;61314;53.444;9.902;2023-07-29T10:29:33;3.37;;;3.17;;
3997;SDS011;61314;53.444;9.902;2023-07-29T10:32:04;3.00;;;2.80;;
3997;SDS011;61314;53.444;9.902;2023-07-29T10:34:33;9.13;;;3.20;;
3997;SDS011;61314;53.444;9.902;2023-07-29T10:37:02;4.07;;;2.40;;
3997;SDS011;61314;53.444;9.902;2023-07-29T10:39:38;2.50;;;2.40;;
3997;SDS011;61314;53.444;9.902;2023-07-29T10:42:06;2.33;;;2.13;;
3997;SDS011;61314;53.444;9.902;2023-07-29T10:47:11;2.90;;;2.70;;
3997;SDS011;61314;53.444;9.902;2023-07-29T10:49:46;2.67;;;2.47;;
3997;SDS011;61314;53.444;9.902;2023-07-29T10:52:13;4.77;;;3.47;;
3997;SDS011;61314;53.444;9.902;2023-07-29T10:54:45;2.53;;;2.30;;
3997;SDS011;61314;53.444;9.902;2023-07-29T10:57:13;2.60;;;2.50;;
3997;SDS011;61314;53.444;9.902;2023-07-29T10:59:55;2.70;;;2.50;;
3997;SDS011;61314;53.444;9.902;2023-07-29T11:02:30;3.37;;;2.90;;
3997;SDS011;61314;53.444;9.902;2023-07-29T11:04:58;2.93;;;2.73;;
3997;SDS011;61314;53.444;9.902;2023-07-29T11:07:26;2.80;;;2.63;;
3997;SDS011;61314;53.444;9.902;2023-07-29T11:09:55;3.50;;;3.30;;
3997;SDS011;61314;53.444;9.902;2023-07-29T11:17:38;3.40;;;3.20;;
3997;SDS011;61314;53.444;9.902;2023-07-29T11:20:06;5.00;;;3.67;;
3997;SDS011;61314;53.444;9.902;2023-07-29T11:22:34;4.43;;;4.03;;
3997;SDS011;61314;53.444;9.902;2023-07-29T11:25:02;4.83;;;4.43;;
3997;SDS011;61314;53.444;9.902;2023-07-29T11:27:29;6.70;;;6.00;;
3997;SDS011;61314;53.444;9.902;2023-07-29T11:29:59;7.00;;;5.07;;
3997;SDS011;61314;53.444;9.902;2023-07-29T11:32:27;6.77;;;5.23;;
3997;SDS011;61314;53.444;9.902;2023-07-29T11:34:54;6.07;;;5.57;;
3997;SDS011;61314;53.444;9.902;2023-07-29T11:37:21;6.33;;;5.77;;
3997;SDS011;61314;53.444;9.902;2023-07-29T11:39:48;5.87;;;5.37;;
3997;SDS011;61314;53.444;9.902;2023-07-29T11:42:15;5.60;;;5.10;;
3997;SDS011;61314;53.444;9.902;2023-07-29T11:44:42;5.60;;;5.07;;
3997;SDS011;61314;53.444;9.902;2023-07-29T11:47:10;5.47;;;4.70;;
3997;SDS011;61314;53.444;9.902;2023-07-29T11:49:40;5.90;;;4.80;;
3997;SDS011;61314;53.444;9.902;2023-07-29T11:52:08;4.47;;;4.17;;
3997;SDS011;61314;53.444;9.902;2023-07-29T11:54:35;4.83;;;4.50;;
3997;SDS011;61314;53.444;9.902;2023-07-29T11:57:04;4.60;;;4.30;;
3997;SDS011;61314;53.444;9.902;2023-07-29T11:59:31;5.53;;;5.17;;
3997;SDS011;61314;53.444;9.902;2023-07-29T12:02:06;9.67;;;4.43;;
3997;SDS011;61314;53.444;9.902;2023-07-29T12:04:34;4.90;;;4.53;;
3997;SDS011;61314;53.444;9.902;2023-07-29T12:07:02;4.60;;;4.30;;
3997;SDS011;61314;53.444;9.902;2023-07-29T12:09:29;4.37;;;4.07;;
3997;SDS011;61314;53.444;9.902;2023-07-29T12:11:56;4.93;;;4.50;;
3997;SDS011;61314;53.444;9.902;2023-07-29T12:14:30;4.60;;;4.20;;
3997;SDS011;61314;53.444;9.902;2023-07-29T12:17:04;4.07;;;3.73;;
3997;SDS011;61314;53.444;9.902;2023-07-29T12:19:32;2.90;;;2.80;;
3997;SDS011;61314;53.444;9.902;2023-07-29T12:22:04;3.43;;;3.13;;
3997;SDS011;61314;53.444;9.902;2023-07-29T12:24:32;3.87;;;2.77;;
3997;SDS011;61314;53.444;9.902;2023-07-29T12:27:00;3.80;;;3.10;;
3997;SDS011;61314;53.444;9.902;2023-07-29T12:29:27;2.97;;;2.87;;
3997;SDS011;61314;53.444;9.902;2023-07-29T12:32:01;2.93;;;2.83;;
3997;SDS011;61314;53.444;9.902;2023-07-29T12:34:29;3.60;;;2.73;;
3997;SDS011;61314;53.444;9.902;2023-07-29T12:36:57;2.90;;;2.50;;
3997;SDS011;61314;53.444;9.902;2023-07-29T12:39:28;7.30;;;2.73;;
3997;SDS011;61314;53.444;9.902;2023-07-29T12:41:57;3.00;;;2.17;;
3997;SDS011;61314;53.444;9.902;2023-07-29T12:44:25;3.00;;;2.60;;
3997;SDS011;61314;53.444;9.902;2023-07-29T12:46:52;2.50;;;2.00;;
3997;SDS011;61314;53.444;9.902;2023-07-29T12:49:19;2.70;;;2.50;;
3997;SDS011;61314;53.444;9.902;2023-07-29T12:51:46;2.37;;;2.17;;
3997;SDS011;61314;53.444;9.902;2023-07-29T12:54:13;2.60;;;2.40;;
3997;SDS011;61314;53.444;9.902;2023-07-29T12:56:40;2.63;;;2.43;;
3997;SDS011;61314;53.444;9.902;2023-07-29T12:59:07;2.93;;;2.73;;
3997;SDS011;61314;53.444;9.902;2023-07-29T13:01:34;2.80;;;2.60;;
3997;SDS011;61314;53.444;9.902;2023-07-29T13:04:02;2.63;;;2.43;;
3997;SDS011;61314;53.444;9.902;2023-07-29T13:06:29;2.67;;;2.47;;
3997;SDS011;61314;53.444;9.902;2023-07-29T13:08:58;2.90;;;2.73;;
3997;SDS011;61314;53.444;9.902;2023-07-29T13:11:25;2.10;;;2.00;;
3997;SDS011;61314;53.444;9.902;2023-07-29T13:13:52;2.80;;;2.60;;
3997;SDS011;61314;53.444;9.902;2023-07-29T13:16:19;3.40;;;3.20;;
3997;SDS011;61314;53.444;9.902;2023-07-29T13:18:46;2.77;;;2.37;;
3997;SDS011;61314;53.444;9.902;2023-07-29T13:21:13;2.97;;;2.77;;
3997;SDS011;61314;53.444;9.902;2023-07-29T13:23:40;2.83;;;2.63;;
3997;SDS011;61314;53.444;9.902;2023-07-29T13:26:08;5.00;;;2.60;;
3997;SDS011;61314;53.444;9.902;2023-07-29T13:28:35;3.40;;;2.90;;
3997;SDS011;61314;53.444;9.902;2023-07-29T13:31:02;3.47;;;3.20;;
3997;SDS011;61314;53.444;9.902;2023-07-29T13:33:29;2.57;;;2.37;;
3997;SDS011;61314;53.444;9.902;2023-07-29T13:36:00;3.20;;;3.00;;
3997;SDS011;61314;53.444;9.902;2023-07-29T13:38:29;2.60;;;2.47;;
3997;SDS011;61314;53.444;9.902;2023-07-29T13:40:56;4.00;;;2.90;;
3997;SDS011;61314;53.444;9.902;2023-07-29T13:43:23;2.90;;;2.70;;
3997;SDS011;61314;53.444;9.902;2023-07-29T13:45:50;2.97;;;2.80;;
3997;SDS011;61314;53.444;9.902;2023-07-29T13:48:17;3.53;;;2.60;;
3997;SDS011;61314;53.444;9.902;2023-07-29T13:50:45;3.60;;;2.47;;
3997;SDS011;61314;53.444;9.902;2023-07-29T13:53:13;2.50;;;2.30;;
3997;SDS011;61314;53.444;9.902;2023-07-29T13:55:40;3.67;;;2.70;;
3997;SDS011;61314;53.444;9.902;2023-07-29T13:58:07;2.33;;;2.20;;
3997;SDS011;61314;53.444;9.902;2023-07-29T14:00:34;2.43;;;2.23;;
3997;SDS011;61314;53.444;9.902;2023-07-29T14:03:01;2.90;;;2.13;;
3997;SDS011;61314;53.444;9.902;2023-07-29T14:05:28;3.10;;;2.80;;
3997;SDS011;61314;53.444;9.902;2023-07-29T14:07:55;2.70;;;2.50;;
3997;SDS011;61314;53.444;9.902;2023-07-29T14:10:22;2.90;;;1.87;;
3997;SDS011;61314;53.444;9.902;2023-07-29T14:12:49;3.60;;;2.00;;
3997;SDS011;61314;53.444;9.902;2023-07-29T14:15:16;2.40;;;2.20;;
3997;SDS011;61314;53.444;9.902;2023-07-29T14:17:44;3.50;;;2.20;;
3997;SDS011;61314;53.444;9.902;2023-07-29T14:20:11;3.00;;;2.23;;
3997;SDS011;61314;53.444;9.902;2023-07-29T14:22:38;2.00;;;1.87;;
3997;SDS011;61314;53.444;9.902;2023-07-29T14:25:06;1.93;;;1.83;;
3997;SDS011;61314;53.444;9.902;2023-07-29T14:27:33;2.40;;;2.20;;
3997;SDS011;61314;53.444;9.902;2023-07-29T14:30:00;1.93;;;1.73;;
3997;SDS011;61314;53.444;9.902;2023-07-29T14:32:28;2.40;;;2.20;;
3997;SDS011;61314;53.444;9.902;2023-07-29T14:34:55;2.10;;;1.90;;
3997;SDS011;61314;53.444;9.902;2023-07-29T14:37:22;4.03;;;2.23;;
3997;SDS011;61314;53.444;9.902;2023-07-29T14:39:49;2.80;;;2.50;;
3997;SDS011;61314;53.444;9.902;2023-07-29T14:42:16;2.33;;;2.13;;
3997;SDS011;61314;53.444;9.902;2023-07-29T14:44:43;6.33;;;2.30;;
3997;SDS011;61314;53.444;9.902;2023-07-29T14:47:11;3.80;;;2.60;;
3997;SDS011;61314;53.444;9.902;2023-07-29T14:49:38;2.50;;;2.30;;
3997;SDS011;61314;53.444;9.902;2023-07-29T14:52:05;3.90;;;2.20;;
3997;SDS011;61314;53.444;9.902;2023-07-29T14:54:32;2.97;;;2.30;;
3997;SDS011;61314;53.444;9.902;2023-07-29T14:57:00;2.57;;;2.37;;
3997;SDS011;61314;53.444;9.902;2023-07-29T14:59:27;3.50;;;2.60;;
3997;SDS011;61314;53.444;9.902;2023-07-29T15:01:54;2.63;;;2.43;;
3997;SDS011;61314;53.444;9.902;2023-07-29T15:04:21;4.83;;;2.83;;